createdAt,value
2023-05-12T00:00:27.873Z,10.40
2023-05-12T00:03:30.273Z,10.40
2023-05-12T00:06:32.521Z,10.40
2023-05-12T00:09:34.753Z,10.40
2023-05-12T00:12:37.256Z,10.40
2023-05-12T00:15:39.456Z,10.40
2023-05-12T00:18:41.571Z,10.40
2023-05-12T00:21:43.849Z,10.40
2023-05-12T00:24:45.940Z,10.40
2023-05-12T00:27:47.984Z,10.40
2023-05-12T00:30:50.039Z,10.40
2023-05-12T00:33:52.067Z,10.40
2023-05-12T00:36:54.143Z,10.40
2023-05-12T00:39:56.232Z,10.40
2023-05-12T00:42:58.307Z,10.40
2023-05-12T00:46:02.450Z,10.40
2023-05-12T00:49:04.787Z,10.40
2023-05-12T00:52:06.888Z,10.40
2023-05-12T00:55:09.426Z,10.40
2023-05-12T00:58:11.471Z,10.40
2023-05-12T01:01:13.878Z,10.40
2023-05-12T01:04:16.188Z,10.40
2023-05-12T01:07:26.367Z,10.40
2023-05-12T01:10:28.493Z,10.40
2023-05-12T01:13:30.594Z,10.40
2023-05-12T01:16:39.499Z,10.40
2023-05-12T01:19:41.522Z,10.40
2023-05-12T01:22:43.721Z,10.40
2023-05-12T01:25:49.228Z,10.40
2023-05-12T01:28:52.092Z,10.40
2023-05-12T01:31:54.832Z,10.40
2023-05-12T01:34:56.963Z,10.40
2023-05-12T01:37:59.043Z,10.40
2023-05-12T01:41:01.195Z,10.50
2023-05-12T01:44:03.253Z,10.50
2023-05-12T01:47:05.685Z,10.40
2023-05-12T01:50:08.162Z,10.50
2023-05-12T01:53:13.049Z,10.50
2023-05-12T01:56:15.203Z,10.40
2023-05-12T01:59:17.258Z,10.40
2023-05-12T02:02:19.272Z,10.50
2023-05-12T02:05:21.387Z,10.50
2023-05-12T02:08:23.493Z,10.50
2023-05-12T02:11:26.131Z,10.50
2023-05-12T02:14:28.242Z,10.50
2023-05-12T02:17:30.341Z,10.50
2023-05-12T02:20:32.365Z,10.50
2023-05-12T02:23:34.413Z,10.50
2023-05-12T02:26:36.455Z,10.50
2023-05-12T02:29:38.766Z,10.50
2023-05-12T02:32:41.238Z,10.50
2023-05-12T02:35:44.702Z,10.50
2023-05-12T02:38:46.765Z,10.40
2023-05-12T02:41:48.801Z,10.50
2023-05-12T02:44:50.852Z,10.50
2023-05-12T02:47:52.916Z,10.50
2023-05-12T02:50:55.044Z,10.50
2023-05-12T02:53:57.118Z,10.50
2023-05-12T02:56:59.876Z,10.50
2023-05-12T03:00:04.925Z,10.50
2023-05-12T03:03:07.115Z,10.50
2023-05-12T03:06:09.599Z,10.50
2023-05-12T03:09:11.655Z,10.40
2023-05-12T03:12:13.652Z,10.50
2023-05-12T03:15:15.633Z,10.50
2023-05-12T03:18:17.661Z,10.50
2023-05-12T03:21:19.713Z,10.50
2023-05-12T03:24:21.806Z,10.50
2023-05-12T03:27:23.855Z,10.50
2023-05-12T03:30:26.027Z,10.50
2023-05-12T03:33:28.078Z,10.50
2023-05-12T03:36:30.142Z,10.50
2023-05-12T03:39:32.201Z,10.50
2023-05-12T03:42:34.253Z,10.50
2023-05-12T03:45:36.350Z,10.50
2023-05-12T03:48:38.450Z,10.50
2023-05-12T03:51:40.525Z,10.60
2023-05-12T03:54:42.525Z,10.60
2023-05-12T03:57:44.576Z,10.60
2023-05-12T04:00:46.846Z,10.60
2023-05-12T04:03:49.048Z,10.60
2023-05-12T04:06:51.256Z,10.70
2023-05-12T04:09:53.305Z,10.60
2023-05-12T04:12:55.372Z,10.60
2023-05-12T04:15:59.305Z,10.60
2023-05-12T04:19:02.748Z,10.70
2023-05-12T04:22:05.059Z,10.70
2023-05-12T04:25:07.568Z,10.70
2023-05-12T04:28:12.043Z,10.70
2023-05-12T04:31:14.408Z,10.70
2023-05-12T04:34:16.450Z,10.70
2023-05-12T04:37:18.453Z,10.70
2023-05-12T04:40:20.840Z,10.70
2023-05-12T04:46:28.141Z,10.70
2023-05-12T04:49:30.172Z,10.70
2023-05-12T04:52:32.737Z,10.70
2023-05-12T04:55:35.131Z,10.70
2023-05-12T04:58:37.214Z,10.70
2023-05-12T05:01:39.363Z,10.70
2023-05-12T05:04:41.503Z,10.80
2023-05-12T05:07:43.584Z,10.80
2023-05-12T05:10:45.738Z,10.80
2023-05-12T05:13:47.788Z,10.90
2023-05-12T05:16:49.929Z,10.90
2023-05-12T05:19:58.524Z,11.00
2023-05-12T05:23:01.375Z,11.00
2023-05-12T05:26:03.821Z,11.00
2023-05-12T05:29:06.364Z,11.00
2023-05-12T05:32:08.488Z,11.10
2023-05-12T05:35:10.580Z,11.10
2023-05-12T05:38:13.159Z,11.10
2023-05-12T05:41:15.167Z,11.20
2023-05-12T05:44:17.235Z,11.30
2023-05-12T05:47:19.334Z,11.30
2023-05-12T05:50:21.329Z,11.30
2023-05-12T05:53:23.426Z,11.40
2023-05-12T05:56:25.428Z,11.50
2023-05-12T05:59:27.534Z,11.60
2023-05-12T06:02:29.715Z,11.80
2023-05-12T06:05:31.825Z,11.90
2023-05-12T06:08:33.859Z,12.00
2023-05-12T06:11:35.901Z,12.00
2023-05-12T06:14:37.930Z,11.90
2023-05-12T06:17:40.012Z,11.90
2023-05-12T06:20:42.339Z,12.00
2023-05-12T06:23:44.502Z,12.00
2023-05-12T06:26:46.664Z,12.10
2023-05-12T06:29:49.148Z,12.20
2023-05-12T06:32:51.281Z,12.40
2023-05-12T06:35:53.434Z,12.60
2023-05-12T06:38:55.808Z,12.70
2023-05-12T06:41:57.885Z,12.80
2023-05-12T06:45:00.793Z,12.70
2023-05-12T06:48:05.554Z,12.70
2023-05-12T06:51:08.621Z,12.70
2023-05-12T06:54:10.677Z,12.80
2023-05-12T06:57:12.728Z,12.80
2023-05-12T07:00:15.220Z,12.80
2023-05-12T07:03:17.609Z,12.80
2023-05-12T07:06:19.748Z,12.80
2023-05-12T07:09:21.814Z,12.80
2023-05-12T07:12:23.953Z,12.80
2023-05-12T07:15:25.936Z,12.80
2023-05-12T07:18:27.985Z,12.80
2023-05-12T07:21:30.768Z,12.70
2023-05-12T07:24:32.854Z,12.70
2023-05-12T07:27:35.192Z,12.60
2023-05-12T07:30:37.737Z,12.60
2023-05-12T07:33:39.812Z,12.60
2023-05-12T07:36:41.850Z,12.70
2023-05-12T07:39:43.914Z,12.70
2023-05-12T07:42:46.107Z,12.70
2023-05-12T07:45:48.118Z,12.60
2023-05-12T07:48:50.787Z,12.70
2023-05-12T07:51:52.833Z,12.70
2023-05-12T07:54:58.006Z,12.60
2023-05-12T07:58:00.592Z,12.60
2023-05-12T08:01:06.071Z,12.60
2023-05-12T08:04:08.176Z,12.50
2023-05-12T08:07:10.408Z,12.40
2023-05-12T08:10:13.253Z,12.40
2023-05-12T08:13:15.323Z,12.30
2023-05-12T08:16:17.574Z,12.40
2023-05-12T08:19:19.803Z,12.40
2023-05-12T08:22:21.866Z,12.40
2023-05-12T08:25:23.943Z,12.50
2023-05-12T08:28:26.052Z,12.40
2023-05-12T08:31:28.401Z,12.50
2023-05-12T08:34:30.669Z,12.50
2023-05-12T08:37:34.715Z,12.50
2023-05-12T08:41:11.113Z,12.60
2023-05-12T08:44:14.163Z,12.60
2023-05-12T08:47:18.770Z,12.50
2023-05-12T08:50:23.017Z,12.40
2023-05-12T08:53:27.866Z,12.50
2023-05-12T08:59:37.935Z,12.70
2023-05-12T09:02:52.265Z,12.80
2023-05-12T09:05:58.646Z,12.90
2023-05-12T09:09:01.080Z,12.80
2023-05-12T09:12:06.629Z,12.80
2023-05-12T09:15:14.930Z,12.90
2023-05-12T09:18:16.935Z,13.10
2023-05-12T09:21:20.004Z,13.00
2023-05-12T09:24:37.393Z,13.00
2023-05-12T09:27:39.623Z,13.00
2023-05-12T09:30:42.637Z,13.00
2023-05-12T09:33:45.132Z,13.00
2023-05-12T09:36:59.163Z,13.00
2023-05-12T09:40:02.981Z,13.10
2023-05-12T09:43:08.711Z,13.10
2023-05-12T09:46:10.857Z,13.10
2023-05-12T09:49:13.099Z,13.10
2023-05-12T09:52:16.159Z,13.20
2023-05-12T09:55:18.310Z,13.20
2023-05-12T09:58:22.015Z,13.30
2023-05-12T10:01:25.357Z,13.30
2023-05-12T10:04:40.162Z,13.50
2023-05-12T10:07:48.478Z,13.70
2023-05-12T10:10:52.367Z,13.80
2023-05-12T10:13:54.634Z,14.00
2023-05-12T10:16:57.707Z,14.20
2023-05-12T10:20:00.637Z,14.40
2023-05-12T10:23:04.124Z,14.40
2023-05-12T10:26:07.450Z,14.20
2023-05-12T10:29:10.928Z,14.10
2023-05-12T10:32:12.970Z,13.90
2023-05-12T10:35:15.438Z,13.80
2023-05-12T10:38:19.782Z,13.70
2023-05-12T10:41:35.386Z,13.60
2023-05-12T10:44:52.031Z,13.50
2023-05-12T10:48:06.957Z,13.50
2023-05-12T10:51:10.530Z,13.50
2023-05-12T10:54:20.001Z,13.50
2023-05-12T10:57:23.290Z,13.50
2023-05-12T11:00:27.322Z,13.40
2023-05-12T11:03:30.474Z,13.50
2023-05-12T11:06:33.068Z,13.50
2023-05-12T11:09:56.861Z,13.30
2023-05-12T11:13:01.984Z,13.30
2023-05-12T11:16:04.412Z,13.40
2023-05-12T11:19:06.780Z,13.50
2023-05-12T11:22:11.336Z,13.50
2023-05-12T11:25:14.123Z,13.50
2023-05-12T11:28:16.326Z,13.50
2023-05-12T11:31:22.821Z,13.40
2023-05-12T11:34:27.195Z,13.40
2023-05-12T11:37:29.230Z,13.30
2023-05-12T11:40:31.413Z,13.20
2023-05-12T11:43:33.372Z,13.30
2023-05-12T11:46:35.355Z,13.20
2023-05-12T11:49:57.130Z,13.30
2023-05-12T11:52:59.318Z,13.30
2023-05-12T11:56:01.426Z,13.20
2023-05-12T11:59:03.662Z,13.30
2023-05-12T12:02:05.817Z,13.30
2023-05-12T12:05:18.508Z,13.40
2023-05-12T12:08:21.014Z,13.50
2023-05-12T12:11:26.847Z,13.50
2023-05-12T12:14:30.058Z,13.50
2023-05-12T12:17:32.277Z,13.50
2023-05-12T12:20:34.360Z,13.60
2023-05-12T12:23:47.631Z,13.70
2023-05-12T12:26:52.302Z,13.80
2023-05-12T12:29:54.422Z,13.80
2023-05-12T12:32:56.498Z,13.80
2023-05-12T12:35:58.632Z,13.80
2023-05-12T12:39:00.714Z,13.80
2023-05-12T12:42:03.199Z,13.80
2023-05-12T12:45:06.332Z,13.80
2023-05-12T12:48:09.258Z,13.60
2023-05-12T12:51:11.756Z,13.60
2023-05-12T12:54:14.830Z,13.70
2023-05-12T12:57:17.427Z,13.70
2023-05-12T13:00:20.017Z,13.70
2023-05-12T13:03:23.161Z,13.60
2023-05-12T13:06:25.236Z,13.60
2023-05-12T13:09:27.933Z,13.60
2023-05-12T13:12:31.399Z,13.70
2023-05-12T13:15:33.381Z,13.80
2023-05-12T13:18:35.478Z,13.80
2023-05-12T13:21:37.933Z,13.80
2023-05-12T13:24:40.032Z,13.80
2023-05-12T13:27:42.142Z,13.80
2023-05-12T13:30:44.397Z,13.70
2023-05-12T13:33:46.448Z,13.60
2023-05-12T13:36:48.584Z,13.70
2023-05-12T13:39:50.699Z,13.60
2023-05-12T13:42:52.690Z,13.60
2023-05-12T13:45:54.777Z,13.60
2023-05-12T13:48:56.901Z,13.70
2023-05-12T13:51:58.892Z,13.80
2023-05-12T13:55:00.967Z,14.10
2023-05-12T13:58:03.011Z,14.50
2023-05-12T14:01:07.261Z,14.90
2023-05-12T14:04:11.815Z,15.20
2023-05-12T14:07:13.845Z,15.40
2023-05-12T14:10:16.093Z,15.50
2023-05-12T14:13:18.214Z,15.80
2023-05-12T14:16:20.652Z,15.80
2023-05-12T14:19:22.684Z,15.70
2023-05-12T14:22:26.559Z,15.70
2023-05-12T14:25:30.807Z,15.70
2023-05-12T14:28:32.934Z,16.00
2023-05-12T14:31:35.129Z,16.60
2023-05-12T14:34:37.124Z,17.20
2023-05-12T14:37:39.246Z,17.60
2023-05-12T14:40:42.436Z,17.70
2023-05-12T14:43:44.635Z,17.60
2023-05-12T14:46:46.703Z,17.20
2023-05-12T14:49:49.119Z,17.00
2023-05-12T14:52:51.149Z,16.80
2023-05-12T14:55:53.277Z,16.60
2023-05-12T14:58:55.363Z,16.50
2023-05-12T15:01:57.536Z,16.60
2023-05-12T15:04:59.582Z,16.70
2023-05-12T15:08:01.637Z,16.80
2023-05-12T15:11:03.937Z,17.00
2023-05-12T15:14:05.909Z,16.70
2023-05-12T15:17:07.971Z,16.60
2023-05-12T15:20:10.523Z,16.40
2023-05-12T15:23:12.566Z,16.20
2023-05-12T15:26:31.354Z,15.90
2023-05-12T15:29:37.686Z,15.90
2023-05-12T15:32:41.241Z,15.90
2023-05-12T15:35:43.334Z,15.90
2023-05-12T15:38:47.269Z,16.10
2023-05-12T15:41:50.443Z,16.20
2023-05-12T15:44:52.802Z,16.40
2023-05-12T15:47:55.043Z,16.20
2023-05-12T15:50:57.075Z,16.40
2023-05-12T15:53:59.268Z,16.40
2023-05-12T15:57:01.731Z,16.40
2023-05-12T16:00:05.468Z,16.40
2023-05-12T16:03:09.510Z,16.60
2023-05-12T16:06:11.555Z,16.80
2023-05-12T16:09:13.766Z,16.90
2023-05-12T16:12:16.002Z,17.10
2023-05-12T16:15:18.206Z,17.10
2023-05-12T16:18:20.355Z,17.00
2023-05-12T16:21:22.463Z,16.90
2023-05-12T16:24:28.251Z,16.40
2023-05-12T16:27:32.053Z,16.10
2023-05-12T16:30:34.078Z,15.70
2023-05-12T16:33:36.328Z,15.30
2023-05-12T16:36:38.357Z,15.00
2023-05-12T16:39:40.356Z,14.70
2023-05-12T16:42:42.786Z,14.50
2023-05-12T16:45:45.045Z,14.40
2023-05-12T16:48:47.073Z,14.20
2023-05-12T16:51:50.259Z,13.90
2023-05-12T16:54:53.164Z,13.80
2023-05-12T16:57:55.445Z,13.50
2023-05-12T17:00:58.806Z,13.20
2023-05-12T17:04:01.468Z,13.00
2023-05-12T17:07:03.595Z,12.80
2023-05-12T17:10:06.752Z,12.70
2023-05-12T17:13:09.503Z,12.50
2023-05-12T17:16:11.660Z,12.50
2023-05-12T17:19:14.390Z,12.50
2023-05-12T17:22:17.256Z,12.40
2023-05-12T17:25:19.858Z,12.50
2023-05-12T17:28:22.382Z,12.40
2023-05-12T17:31:24.451Z,12.40
2023-05-12T17:34:26.689Z,12.40
2023-05-12T17:37:30.401Z,12.40
2023-05-12T17:40:32.568Z,12.40
2023-05-12T17:43:34.626Z,12.40
2023-05-12T17:46:36.694Z,12.30
2023-05-12T17:49:41.881Z,12.30
2023-05-12T17:52:44.010Z,12.30
2023-05-12T17:55:46.138Z,12.20
2023-05-12T17:58:48.220Z,12.20
2023-05-12T18:01:50.389Z,12.10
2023-05-12T18:04:52.517Z,12.10
2023-05-12T18:07:54.563Z,12.10
2023-05-12T18:10:56.666Z,12.10
2023-05-12T18:14:01.881Z,12.00
2023-05-12T18:17:04.001Z,12.00
2023-05-12T18:20:06.840Z,12.00
2023-05-12T18:23:09.030Z,11.90
2023-05-12T18:26:11.145Z,11.90
2023-05-12T18:29:13.416Z,11.90
2023-05-12T18:32:15.511Z,11.90
2023-05-12T18:35:18.101Z,11.80
2023-05-12T18:38:20.735Z,11.80
2023-05-12T18:41:22.954Z,11.80
2023-05-12T18:44:25.077Z,11.90
2023-05-12T18:47:27.314Z,11.80
2023-05-12T18:50:30.229Z,11.80
2023-05-12T18:53:32.617Z,11.80
2023-05-12T18:56:34.910Z,11.90
2023-05-12T18:59:37.202Z,11.90
2023-05-12T19:02:42.186Z,11.90
2023-05-12T19:05:46.425Z,11.90
2023-05-12T19:08:48.982Z,11.90
2023-05-12T19:11:51.394Z,11.90
2023-05-12T19:14:53.479Z,11.90
2023-05-12T19:17:56.851Z,11.90
2023-05-12T19:20:59.205Z,11.90
2023-05-12T19:24:01.517Z,11.90
2023-05-12T19:27:03.707Z,11.90
2023-05-12T19:30:06.774Z,11.80
2023-05-12T19:33:09.607Z,11.80
2023-05-12T19:36:12.633Z,11.80
2023-05-12T19:39:14.818Z,11.80
2023-05-12T19:42:16.981Z,11.70
2023-05-12T19:45:19.436Z,11.70
2023-05-12T19:48:21.641Z,11.60
2023-05-12T19:51:23.685Z,11.60
2023-05-12T19:54:25.835Z,11.60
2023-05-12T19:57:29.514Z,11.60
2023-05-12T20:00:31.777Z,11.50
2023-05-12T20:03:34.183Z,11.50
2023-05-12T20:06:36.550Z,11.50
2023-05-12T20:09:38.568Z,11.50
2023-05-12T20:12:40.588Z,11.40
2023-05-12T20:15:44.121Z,11.40
2023-05-12T20:18:46.333Z,11.40
2023-05-12T20:21:48.431Z,11.40
2023-05-12T20:24:51.336Z,11.40
2023-05-12T20:27:55.543Z,11.30
2023-05-12T20:30:57.583Z,11.30
2023-05-12T20:33:59.680Z,11.30
2023-05-12T20:37:01.695Z,11.30
2023-05-12T20:40:05.366Z,11.30
2023-05-12T20:43:08.840Z,11.30
2023-05-12T20:46:11.601Z,11.20
2023-05-12T20:49:13.823Z,11.20
2023-05-12T20:52:16.094Z,11.20
2023-05-12T20:55:18.161Z,11.20
2023-05-12T20:58:20.229Z,11.10
2023-05-12T21:01:22.576Z,11.10
2023-05-12T21:04:24.812Z,11.10
2023-05-12T21:07:26.866Z,11.10
2023-05-12T21:10:31.057Z,11.10
2023-05-12T21:13:33.103Z,11.10
2023-05-12T21:16:35.145Z,11.10
2023-05-12T21:19:38.515Z,11.10
2023-05-12T21:22:40.942Z,11.00
2023-05-12T21:25:42.997Z,11.00
2023-05-12T21:28:45.103Z,11.00
2023-05-12T21:31:48.351Z,10.90
2023-05-12T21:34:50.428Z,10.90
2023-05-12T21:37:52.487Z,10.90
2023-05-12T21:40:56.411Z,10.90
2023-05-12T21:43:58.551Z,10.90
2023-05-12T21:47:00.592Z,10.80
2023-05-12T21:50:04.292Z,10.80
2023-05-12T21:53:06.571Z,10.80
2023-05-12T21:56:08.638Z,10.80
2023-05-12T21:59:10.816Z,10.80
2023-05-12T22:02:13.315Z,10.80
2023-05-12T22:05:15.410Z,10.80
2023-05-12T22:08:17.547Z,10.80
2023-05-12T22:11:19.851Z,10.70
2023-05-12T22:14:21.976Z,10.70
2023-05-12T22:17:24.065Z,10.80
2023-05-12T22:20:26.315Z,10.70
2023-05-12T22:23:28.402Z,10.80
2023-05-12T22:26:30.477Z,10.80
2023-05-12T22:29:32.527Z,10.70
2023-05-12T22:32:34.680Z,10.70
2023-05-12T22:35:36.886Z,10.70
2023-05-12T22:38:38.947Z,10.70
2023-05-12T22:41:41.724Z,10.70
2023-05-12T22:44:44.255Z,10.60
2023-05-12T22:47:46.428Z,10.60
2023-05-12T22:50:48.785Z,10.60
2023-05-12T22:53:50.917Z,10.50
2023-05-12T22:56:52.993Z,10.50
2023-05-12T22:59:55.043Z,10.40
2023-05-12T23:02:57.230Z,10.50
2023-05-12T23:05:59.266Z,10.50
2023-05-12T23:09:01.388Z,10.40
2023-05-12T23:12:04.520Z,10.50
2023-05-12T23:15:07.759Z,10.50
2023-05-12T23:18:09.827Z,10.50
2023-05-12T23:21:11.948Z,10.60
2023-05-12T23:24:14.040Z,10.60
2023-05-12T23:27:16.094Z,10.60
2023-05-12T23:30:18.138Z,10.60
2023-05-12T23:33:20.583Z,10.60
2023-05-12T23:36:22.852Z,10.60
2023-05-12T23:39:24.850Z,10.70
2023-05-12T23:42:26.920Z,10.70
2023-05-12T23:45:29.003Z,10.60
2023-05-12T23:48:31.086Z,10.60
2023-05-12T23:51:33.296Z,10.60
2023-05-12T23:54:35.392Z,10.60
2023-05-12T23:57:37.573Z,10.70
